Bridal Veil, Oregon
Current Conditions -  °F | °C
As of 10:53 PM on Saturday 20 Dec 2014 (Local Time) from KTTD Reporting Station
Overcast Overcast  
Wind Chill: 59°   Ceiling: 1900
Heat Index: 59°   Visibility: 10mi
Dew Point: 56°   Wind: 18mph
Humidity: 90%   Direction: 230°SW
Pressure: 29.67"   Gusts: 32mph
Location:  45.56°N, 122.17°W
Report Text: KTTD 210653Z AUTO 23016G28KT 10SM OVC019 15/13 A2967 RMK AO2 PK WND 23028/0650 RAE29 SLP048 P0000 T01500133
Loading
Personal Weather Stations






























Interactive Weather Map New forecast layout! Learn more

10-Day Weather Forecast

Advertisements
Track Severe Weather on mobile